Time;durP1;ratioP1;P1;durP2;ratioP2;P2;SDS_P1;SDS_P2;PMS_P1;PMS_P2;Temp;Humidity;BMP_temperature;BMP_pressure;BME280_temperature;BME280_humidity;BME280_pressure;Samples;Min_cycle;Max_cycle;Signal;HPM_P1;HPM_P2
2021/01/21 00:00:18;;;;;;;7.28;5.72;;;16.30;41.70;;;;;;6113223;23;20172;-82
2021/01/21 00:02:46;;;;;;;7.95;5.78;;;16.30;41.70;;;;;;6089650;23;20192;-82
2021/01/21 00:05:14;;;;;;;8.07;6.05;;;16.30;41.70;;;;;;6065123;23;20137;-82
2021/01/21 00:07:40;;;;;;;6.90;5.43;;;16.20;41.80;;;;;;6089929;23;20140;-82
2021/01/21 00:10:09;;;;;;;8.05;5.60;;;16.20;41.80;;;;;;6113342;23;20137;-82
2021/01/21 00:12:38;;;;;;;7.30;5.57;;;16.30;41.80;;;;;;6088403;23;20147;-82
2021/01/21 00:15:06;;;;;;;7.97;6.07;;;16.30;41.80;;;;;;6089647;23;20171;-83
2021/01/21 00:17:32;;;;;;;7.43;5.65;;;16.20;41.80;;;;;;6065648;23;20148;-83
2021/01/21 00:19:59;;;;;;;7.90;5.95;;;16.20;41.80;;;;;;6064834;23;20176;-83
2021/01/21 00:22:27;;;;;;;8.30;5.97;;;16.20;41.90;;;;;;6065891;23;20202;-83
2021/01/21 00:24:53;;;;;;;7.40;6.00;;;16.20;41.80;;;;;;6064849;23;20569;-83
2021/01/21 00:27:20;;;;;;;8.02;5.78;;;16.30;41.90;;;;;;6065243;23;20141;-82
2021/01/21 00:29:53;;;;;;;7.97;5.85;;;16.20;41.80;;;;;;6065013;23;20169;-83
2021/01/21 00:32:21;;;;;;;8.32;6.10;;;16.20;41.90;;;;;;6088788;23;20276;-82
2021/01/21 00:34:47;;;;;;;8.63;6.10;;;16.20;41.90;;;;;;6089404;23;20204;-82
2021/01/21 00:37:22;;;;;;;6.57;5.45;;;16.20;42.00;;;;;;6088710;23;20175;-82
2021/01/21 00:39:49;;;;;;;7.50;5.65;;;16.20;42.00;;;;;;6088441;23;20179;-83
2021/01/21 00:42:16;;;;;;;7.82;5.75;;;16.20;42.00;;;;;;6064254;23;20192;-82
2021/01/21 00:44:51;;;;;;;8.43;5.82;;;16.20;42.10;;;;;;6064179;23;20209;-82
2021/01/21 00:47:21;;;;;;;8.70;6.13;;;16.20;41.90;;;;;;6112414;23;20129;-82
2021/01/21 00:49:49;;;;;;;8.48;6.03;;;16.20;42.00;;;;;;6063920;23;20160;-82
2021/01/21 00:52:19;;;;;;;8.10;5.82;;;16.20;42.00;;;;;;6063174;23;20180;-82
2021/01/21 00:54:46;;;;;;;8.00;6.10;;;16.20;42.00;;;;;;6064674;23;20152;-82
2021/01/21 00:57:15;;;;;;;8.00;5.80;;;16.20;42.00;;;;;;6064533;23;20581;-82
2021/01/21 00:59:43;;;;;;;8.57;6.00;;;16.20;42.60;;;;;;6088136;23;20608;-82
2021/01/21 01:02:10;;;;;;;7.60;5.82;;;16.20;42.00;;;;;;6088255;23;20133;-83
2021/01/21 01:04:37;;;;;;;8.32;5.75;;;16.20;42.00;;;;;;6087774;23;20149;-82
2021/01/21 01:07:05;;;;;;;8.27;6.15;;;16.20;42.10;;;;;;6063796;23;20149;-82
2021/01/21 01:09:33;;;;;;;8.65;5.88;;;16.20;42.10;;;;;;6063978;23;20156;-82
2021/01/21 01:12:02;;;;;;;8.50;5.72;;;16.20;42.10;;;;;;6089023;23;20158;-82
2021/01/21 01:14:27;;;;;;;7.35;5.65;;;16.10;42.10;;;;;;6088067;23;20133;-82
2021/01/21 01:16:58;;;;;;;7.28;5.22;;;16.10;42.10;;;;;;6063800;23;20149;-82
2021/01/21 01:19:28;;;;;;;7.63;5.68;;;16.10;42.10;;;;;;6111640;23;20504;-82
2021/01/21 01:21:54;;;;;;;7.90;6.03;;;16.10;42.20;;;;;;6087782;23;20191;-82
2021/01/21 01:24:24;;;;;;;7.88;6.03;;;16.10;42.20;;;;;;6087781;23;20133;-82
2021/01/21 01:26:50;;;;;;;8.05;5.60;;;16.10;42.10;;;;;;6110916;23;20140;-82
2021/01/21 01:29:19;;;;;;;7.72;5.38;;;16.10;42.10;;;;;;6063677;23;20208;-83
2021/01/21 02:31:48;;;;;;;6.57;5.20;;;16.10;42.30;;;;;;6191382;22;919165;-84
2021/01/21 02:35:01;;;;;;;8.00;5.45;;;16.10;42.30;;;;;;6185969;23;20162;-83
2021/01/21 02:37:37;;;;;;;8.07;6.00;;;16.10;42.40;;;;;;6193331;23;20176;-84
2021/01/21 02:40:05;;;;;;;7.50;5.22;;;16.10;42.30;;;;;;6208954;23;20138;-84
2021/01/21 02:42:44;;;;;;;6.93;5.30;;;16.10;42.40;;;;;;6179168;23;20222;-84
2021/01/21 02:45:11;;;;;;;7.05;5.68;;;16.10;42.40;;;;;;6177285;23;20139;-84
2021/01/21 02:47:38;;;;;;;7.68;5.63;;;16.10;42.40;;;;;;6177603;23;20182;-84
2021/01/21 02:50:08;;;;;;;7.68;5.60;;;16.10;42.30;;;;;;6151803;23;20166;-84
2021/01/21 02:52:47;;;;;;;6.85;4.97;;;16.10;42.30;;;;;;6177788;23;20142;-84
2021/01/21 02:55:51;;;;;;;7.15;5.43;;;16.10;42.40;;;;;;6155502;23;20165;-84
2021/01/21 02:58:37;;;;;;;8.40;6.03;;;16.10;42.40;;;;;;6202483;23;20131;-84
2021/01/21 03:01:05;;;;;;;7.32;5.47;;;16.10;42.50;;;;;;6202217;23;20174;-84
2021/01/21 03:03:42;;;;;;;7.40;5.55;;;16.10;42.50;;;;;;6177750;23;20537;-84
2021/01/21 03:06:18;;;;;;;7.57;5.85;;;16.00;42.40;;;;;;6201743;23;20131;-84
2021/01/21 03:08:45;;;;;;;7.72;5.53;;;16.00;42.50;;;;;;6202490;23;20138;-84
2021/01/21 03:11:13;;;;;;;7.68;5.45;;;16.10;42.50;;;;;;6177777;23;20178;-84
2021/01/21 03:13:45;;;;;;;7.63;5.75;;;16.10;42.50;;;;;;6152943;23;20229;-84
2021/01/21 03:16:11;;;;;;;7.53;5.63;;;16.00;42.50;;;;;;6201586;23;20131;-84
2021/01/21 03:18:39;;;;;;;7.45;5.47;;;16.00;42.50;;;;;;6152924;23;20157;-84
2021/01/21 03:21:05;;;;;;;6.97;5.57;;;16.00;42.50;;;;;;6202045;23;20182;-83
2021/01/21 03:23:42;;;;;;;7.22;5.32;;;16.10;42.50;;;;;;6152240;23;20143;-84
2021/01/21 03:26:14;;;;;;;7.40;5.65;;;16.10;42.50;;;;;;6155378;23;20189;-84
2021/01/21 03:28:41;;;;;;;7.72;6.10;;;16.10;42.60;;;;;;6201772;23;20142;-84
2021/01/21 03:31:07;;;;;;;7.45;5.65;;;16.00;42.50;;;;;;6176461;23;20202;-84
2021/01/21 03:33:36;;;;;;;7.78;5.43;;;16.00;42.60;;;;;;6177566;23;20151;-84
2021/01/21 03:36:02;;;;;;;6.90;5.38;;;16.00;42.50;;;;;;6152609;23;20143;-84
2021/01/21 03:38:34;;;;;;;7.43;5.38;;;16.00;42.60;;;;;;6176636;23;20206;-84
2021/01/21 03:41:00;;;;;;;7.72;5.63;;;16.00;42.50;;;;;;6176567;23;20158;-84
2021/01/21 03:43:27;;;;;;;6.47;5.35;;;16.00;42.60;;;;;;6152781;23;20174;-84
2021/01/21 03:45:53;;;;;;;7.35;5.40;;;16.00;42.60;;;;;;6177416;23;20128;-84
2021/01/21 03:48:21;;;;;;;7.47;5.45;;;16.00;42.50;;;;;;6151804;23;20150;-84
2021/01/21 03:50:49;;;;;;;6.65;5.30;;;16.00;42.60;;;;;;6177452;23;20165;-84
2021/01/21 03:53:19;;;;;;;7.13;5.30;;;16.00;42.60;;;;;;6151092;23;20146;-84
2021/01/21 03:55:45;;;;;;;7.47;5.63;;;16.00;42.60;;;;;;6176571;23;20147;-84
2021/01/21 03:58:18;;;;;;;7.18;5.38;;;16.00;42.60;;;;;;6152657;23;20139;-84
2021/01/21 04:00:46;;;;;;;8.65;6.15;;;16.00;42.60;;;;;;6177422;23;20131;-84
2021/01/21 04:03:13;;;;;;;8.20;5.70;;;16.00;42.60;;;;;;6176264;23;20275;-84
2021/01/21 04:05:43;;;;;;;8.20;5.50;;;16.00;42.50;;;;;;6176518;23;20162;-84
2021/01/21 04:08:09;;;;;;;7.05;5.30;;;16.00;42.60;;;;;;6201020;23;20139;-84
2021/01/21 04:10:40;;;;;;;7.07;5.47;;;16.00;42.60;;;;;;6176727;23;20222;-83
2021/01/21 04:13:07;;;;;;;6.55;5.35;;;16.00;42.60;;;;;;6152006;23;20202;-84
2021/01/21 04:15:33;;;;;;;7.45;5.68;;;16.00;42.50;;;;;;6176644;23;20173;-84
2021/01/21 04:18:01;;;;;;;7.28;5.22;;;16.00;42.60;;;;;;6151737;23;20138;-84
2021/01/21 04:20:28;;;;;;;7.85;5.63;;;16.00;42.60;;;;;;6151280;23;20143;-84
2021/01/21 04:22:54;;;;;;;6.32;5.03;;;16.00;42.70;;;;;;6151738;23;20490;-84
2021/01/21 04:25:20;;;;;;;7.13;5.47;;;16.00;42.60;;;;;;6176809;23;20147;-84
2021/01/21 04:27:48;;;;;;;8.15;5.88;;;16.00;42.70;;;;;;6151819;23;20493;-84
2021/01/21 04:30:17;;;;;;;6.95;5.13;;;16.00;42.60;;;;;;6151679;23;20518;-83
2021/01/21 04:32:45;;;;;;;6.72;5.45;;;16.00;42.60;;;;;;6205386;23;20463;-84
2021/01/21 04:35:12;;;;;;;7.50;5.38;;;16.00;42.70;;;;;;6181201;23;20149;-84
2021/01/21 04:37:40;;;;;;;7.10;5.40;;;16.00;42.70;;;;;;6182041;23;20127;-83
2021/01/21 04:40:09;;;;;;;7.35;5.22;;;16.00;42.60;;;;;;6181644;23;20139;-83
2021/01/21 04:42:35;;;;;;;7.68;5.35;;;16.00;42.60;;;;;;6181500;23;20162;-84
2021/01/21 04:45:03;;;;;;;7.28;5.50;;;16.00;42.70;;;;;;6156890;23;20574;-83
2021/01/21 04:47:33;;;;;;;7.18;5.55;;;16.00;42.80;;;;;;6156771;23;20204;-84
2021/01/21 04:50:00;;;;;;;7.35;5.35;;;16.00;42.70;;;;;;6180212;23;20189;-84
2021/01/21 04:52:26;;;;;;;7.45;5.70;;;16.00;42.70;;;;;;6156203;23;20161;-84
2021/01/21 04:55:11;;;;;;;7.43;4.97;;;16.10;42.60;;;;;;6180329;23;20137;-84
2021/01/21 04:57:56;;;;;;;6.88;5.18;;;16.10;42.70;;;;;;6156044;23;20152;-83
2021/01/21 05:00:28;;;;;;;6.88;5.47;;;16.10;42.60;;;;;;6156428;23;20201;-84
2021/01/21 05:02:54;;;;;;;7.28;5.40;;;16.20;42.50;;;;;;6154454;23;20149;-84
2021/01/21 05:05:29;;;;;;;6.47;4.90;;;16.10;42.50;;;;;;6155187;23;20142;-84
2021/01/21 05:07:55;;;;;;;7.43;5.47;;;16.10;42.50;;;;;;6155080;23;20146;-84
2021/01/21 05:10:24;;;;;;;6.18;4.80;;;16.20;42.50;;;;;;6155094;23;20571;-84
2021/01/21 05:12:50;;;;;;;6.88;5.13;;;16.20;42.50;;;;;;6154681;23;20146;-84
2021/01/21 05:15:18;;;;;;;6.32;4.78;;;16.20;42.40;;;;;;6155188;23;20196;-84
2021/01/21 05:17:44;;;;;;;7.03;5.35;;;16.20;42.40;;;;;;6155688;23;20142;-84
2021/01/21 05:20:13;;;;;;;6.85;5.03;;;16.20;42.40;;;;;;6179141;23;20200;-84
2021/01/21 05:22:45;;;;;;;6.68;5.15;;;16.20;42.40;;;;;;6204991;23;20222;-84
2021/01/21 05:25:12;;;;;;;6.00;4.80;;;16.30;42.40;;;;;;6179646;23;20606;-84
2021/01/21 05:27:40;;;;;;;6.88;5.00;;;16.30;42.40;;;;;;6180333;23;20190;-84
2021/01/21 05:30:09;;;;;;;5.63;4.40;;;16.20;42.40;;;;;;6179650;23;20178;-84
2021/01/21 05:32:45;;;;;;;5.75;4.43;;;16.30;42.50;;;;;;6204867;23;20205;-84
2021/01/21 05:35:31;;;;;;;6.00;4.70;;;16.30;42.20;;;;;;6180532;23;20149;-84
2021/01/21 05:38:03;;;;;;;6.10;4.85;;;16.40;42.90;;;;;;6177717;23;20150;-86
2021/01/21 05:40:30;;;;;;;6.10;4.72;;;16.40;42.20;;;;;;6205069;23;20165;-84
2021/01/21 05:42:58;;;;;;;6.55;4.70;;;16.40;42.20;;;;;;6155144;23;20150;-84
2021/01/21 05:45:33;;;;;;;5.25;4.32;;;16.40;42.20;;;;;;6179450;23;20150;-84
2021/01/21 05:48:00;;;;;;;6.97;5.18;;;16.40;42.20;;;;;;6179540;23;20176;-84
2021/01/21 05:50:32;;;;;;;5.72;4.43;;;16.40;42.20;;;;;;6203699;23;20172;-84
2021/01/21 05:53:08;;;;;;;5.90;4.50;;;16.40;42.20;;;;;;6178204;23;20214;-84
2021/01/21 05:55:37;;;;;;;5.88;4.47;;;16.40;42.20;;;;;;6204982;23;20207;-84
2021/01/21 05:58:04;;;;;;;5.55;4.45;;;16.40;42.30;;;;;;6179147;23;20165;-84
2021/01/21 06:00:32;;;;;;;6.00;4.75;;;16.40;42.20;;;;;;6203243;23;20161;-85
2021/01/21 06:03:02;;;;;;;5.57;4.18;;;16.40;42.30;;;;;;6203630;23;20489;-84
2021/01/21 06:05:31;;;;;;;4.88;3.97;;;16.40;42.20;;;;;;6154880;23;20213;-84
2021/01/21 06:08:02;;;;;;;5.20;4.30;;;16.40;42.30;;;;;;6155690;23;20146;-84
2021/01/21 06:10:28;;;;;;;13.75;4.90;;;16.40;42.30;;;;;;6179092;23;20220;-83
2021/01/21 06:12:56;;;;;;;5.88;4.57;;;16.50;42.30;;;;;;6179379;23;20130;-83
2021/01/21 06:15:23;;;;;;;5.03;4.10;;;16.40;42.40;;;;;;6204369;23;20130;-83
2021/01/21 06:17:58;;;;;;;5.45;4.30;;;16.40;42.40;;;;;;6178715;23;20170;-83
2021/01/21 06:20:27;;;;;;;5.47;4.15;;;16.40;42.40;;;;;;6205790;23;20477;-83
2021/01/21 06:22:55;;;;;;;4.90;3.92;;;16.40;42.40;;;;;;6182074;23;20153;-83
2021/01/21 06:25:21;;;;;;;5.45;4.22;;;16.40;42.50;;;;;;6180756;23;20201;-83
2021/01/21 06:27:49;;;;;;;5.28;4.35;;;16.40;42.50;;;;;;6182045;23;20149;-83
2021/01/21 06:30:19;;;;;;;5.75;4.20;;;16.40;42.50;;;;;;6156317;23;20186;-82
2021/01/21 06:33:05;;;;;;;5.47;4.15;;;16.40;42.50;;;;;;6180665;23;20296;-82
2021/01/21 06:36:01;;;;;;;5.32;4.18;;;16.40;42.50;;;;;;6159397;23;20142;-82
2021/01/21 06:38:41;;;;;;;4.82;3.75;;;16.40;42.50;;;;;;6176532;23;20249;-83
2021/01/21 06:41:19;;;;;;;4.85;3.97;;;16.50;42.50;;;;;;6156789;23;20153;-82
2021/01/21 06:43:45;;;;;;;5.50;4.20;;;16.40;42.50;;;;;;6157633;23;20205;-82
2021/01/21 06:46:16;;;;;;;5.65;4.30;;;16.50;42.50;;;;;;6156132;23;20134;-83
2021/01/21 06:48:48;;;;;;;4.70;3.83;;;16.40;42.50;;;;;;6180370;23;20134;-82
2021/01/21 06:51:13;;;;;;;5.35;4.15;;;16.40;42.50;;;;;;6156294;23;20174;-82
2021/01/21 06:53:52;;;;;;;4.68;3.78;;;16.50;42.40;;;;;;6154882;23;20222;-83
2021/01/21 06:56:37;;;;;;;4.70;3.80;;;16.50;42.40;;;;;;6204884;23;20268;-83
2021/01/21 06:59:45;;;;;;;4.22;3.58;;;16.50;42.50;;;;;;6180614;23;20130;-83
2021/01/21 07:02:59;;;;;;;4.32;3.75;;;16.60;42.50;;;;;;6193408;23;20170;-83
2021/01/21 07:05:49;;;;;;;6.03;4.50;;;16.50;42.30;;;;;;6201793;23;20146;-83
2021/01/21 07:08:56;;;;;;;5.70;4.20;;;16.60;42.30;;;;;;6210724;23;20135;-84
2021/01/21 07:11:46;;;;;;;4.32;3.60;;;16.50;42.40;;;;;;6206831;23;20560;-83
2021/01/21 07:14:17;;;;;;;3.90;3.50;;;16.60;42.30;;;;;;6186413;23;20169;-84
2021/01/21 07:17:10;;;;;;;5.32;4.03;;;16.60;42.50;;;;;;6181846;23;20164;-83
2021/01/21 07:19:56;;;;;;;5.03;4.07;;;16.60;42.40;;;;;;6208472;23;20218;-83
2021/01/21 07:22:43;;;;;;;5.30;4.20;;;16.60;42.50;;;;;;6182235;23;20146;-83
2021/01/21 07:25:12;;;;;;;4.55;3.67;;;16.60;42.50;;;;;;6180719;23;20134;-82
2021/01/21 07:27:41;;;;;;;4.47;3.67;;;16.50;42.50;;;;;;6204986;23;20135;-82
2021/01/21 07:30:15;;;;;;;4.78;3.80;;;16.50;42.50;;;;;;6203493;23;20170;-82
2021/01/21 07:32:43;;;;;;;4.82;3.78;;;16.50;42.70;;;;;;6204142;23;20190;-83
2021/01/21 07:35:31;;;;;;;4.95;3.95;;;16.60;42.70;;;;;;6181408;23;20191;-84
2021/01/21 07:37:58;;;;;;;5.53;3.92;;;16.70;42.40;;;;;;6207073;23;20142;-83
2021/01/21 07:41:05;;;;;;;4.47;3.35;;;16.70;42.60;;;;;;6211620;23;20145;-82
2021/01/21 07:43:56;;;;;;;4.80;3.67;;;16.70;42.40;;;;;;6188340;23;20150;-82
2021/01/21 07:46:26;;;;;;;6.50;3.88;;;16.70;42.40;;;;;;6211934;23;20582;-82
2021/01/21 07:49:27;;;;;;;4.75;3.97;;;16.70;42.50;;;;;;6186146;23;20145;-82
2021/01/21 07:52:06;;;;;;;4.53;3.70;;;16.70;42.50;;;;;;6210753;23;20189;-82
2021/01/21 07:54:48;;;;;;;4.93;3.83;;;16.70;42.40;;;;;;6186664;23;20150;-81
2021/01/21 07:57:23;;;;;;;4.90;3.78;;;16.70;42.60;;;;;;6186276;23;20181;-81
2021/01/21 08:00:04;;;;;;;4.82;4.00;;;16.70;42.60;;;;;;6185994;23;20181;-82
2021/01/21 08:02:50;;;;;;;5.57;4.13;;;16.70;42.60;;;;;;6185473;23;20154;-82
2021/01/21 08:05:28;;;;;;;4.65;3.88;;;16.70;42.80;;;;;;6210098;23;20577;-82
2021/01/21 08:07:55;;;;;;;5.07;3.78;;;16.60;42.80;;;;;;6208498;23;20146;-82
2021/01/21 08:10:28;;;;;;;5.05;4.03;;;16.60;42.90;;;;;;6183417;23;20224;-82
2021/01/21 08:12:56;;;;;;;5.00;3.90;;;16.60;43.20;;;;;;6184778;23;20146;-82
2021/01/21 08:15:24;;;;;;;5.72;3.65;;;16.70;43.00;;;;;;6210021;23;20141;-82
2021/01/21 08:17:51;;;;;;;5.28;3.60;;;16.70;42.90;;;;;;6185684;23;20157;-82
2021/01/21 08:20:18;;;;;;;4.95;3.88;;;16.70;42.90;;;;;;6183340;23;20166;-82
2021/01/21 08:23:04;;;;;;;6.53;4.25;;;16.80;42.70;;;;;;6183358;23;20152;-83
2021/01/21 08:25:43;;;;;;;6.63;3.97;;;16.80;42.70;;;;;;6231498;23;20130;-81
2021/01/21 08:28:14;;;;;;;10.38;4.25;;;16.80;42.90;;;;;;6183693;23;20165;-81
2021/01/21 08:30:40;;;;;;;6.75;4.25;;;16.80;42.90;;;;;;6182445;23;20197;-80
2021/01/21 08:33:16;;;;;;;6.65;4.00;;;16.80;42.90;;;;;;6156980;23;20216;-81
2021/01/21 08:35:48;;;;;;;7.57;3.88;;;16.80;42.90;;;;;;6206617;23;20198;-79
2021/01/21 08:38:24;;;;;;;10.73;4.18;;;16.80;43.00;;;;;;6183083;23;20146;-81
2021/01/21 08:40:54;;;;;;;11.40;4.15;;;16.80;43.00;;;;;;6184418;23;20192;-81
2021/01/21 08:43:21;;;;;;;11.27;4.53;;;16.80;43.00;;;;;;6183420;23;20152;-81
2021/01/21 08:45:48;;;;;;;13.35;3.95;;;16.80;43.00;;;;;;6184041;23;20177;-81
2021/01/21 08:48:35;;;;;;;15.40;4.22;;;16.80;43.10;;;;;;6183770;23;20157;-81
2021/01/21 08:51:48;;;;;;;15.80;4.22;;;16.80;43.00;;;;;;6182449;23;20273;-81
2021/01/21 08:54:24;;;;;;;9.48;4.38;;;16.70;43.20;;;;;;6204454;23;20192;-81
2021/01/21 08:57:10;;;;;;;8.98;3.70;;;16.70;43.40;;;;;;6182212;23;20157;-81
2021/01/21 08:59:39;;;;;;;12.60;4.50;;;16.80;43.30;;;;;;6181987;23;20182;-81
2021/01/21 09:02:05;;;;;;;5.72;3.95;;;16.70;43.20;;;;;;6204913;23;20133;-81
2021/01/21 09:04:41;;;;;;;8.43;4.05;;;16.70;43.40;;;;;;6178267;23;20139;-81
2021/01/21 09:07:11;;;;;;;9.48;4.20;;;16.70;43.60;;;;;;6180378;23;20133;-80
2021/01/21 09:09:49;;;;;;;7.15;4.40;;;16.80;43.40;;;;;;6204908;23;20131;-80
2021/01/21 09:12:20;;;;;;;7.18;3.90;;;16.80;43.70;;;;;;6204814;23;20122;-80
2021/01/21 09:15:15;;;;;;;7.82;3.90;;;16.80;43.60;;;;;;6179413;23;20147;-80
2021/01/21 09:18:05;;;;;;;6.70;4.13;;;16.70;43.50;;;;;;6158421;23;20164;-81
2021/01/21 09:21:13;;;;;;;6.53;3.70;;;16.80;43.50;;;;;;6179062;23;20149;-81
2021/01/21 09:24:04;;;;;;;5.20;4.20;;;16.80;43.60;;;;;;6231052;23;20160;-81
2021/01/21 09:27:09;;;;;;;4.97;3.80;;;16.80;43.50;;;;;;6203493;23;20130;-80
2021/01/21 09:30:15;;;;;;;9.18;4.18;;;16.90;43.50;;;;;;6204313;23;20134;-80
2021/01/21 09:33:02;;;;;;;5.72;4.30;;;16.90;43.60;;;;;;6200615;23;20217;-80
2021/01/21 09:35:50;;;;;;;9.50;4.15;;;16.90;43.60;;;;;;6200636;23;20131;-80
2021/01/21 09:38:37;;;;;;;7.18;4.22;;;16.90;43.60;;;;;;6175949;23;20155;-80
2021/01/21 09:41:23;;;;;;;6.43;3.70;;;16.90;43.40;;;;;;6175049;23;20214;-80
2021/01/21 09:44:11;;;;;;;7.32;4.18;;;17.00;43.60;;;;;;6201236;23;20190;-79
2021/01/21 09:47:01;;;;;;;7.50;4.28;;;16.90;43.50;;;;;;6201963;23;20151;-80
2021/01/21 09:49:32;;;;;;;4.88;3.80;;;16.90;43.50;;;;;;6204493;23;20170;-80
2021/01/21 09:52:00;;;;;;;4.50;3.88;;;16.90;43.70;;;;;;6204345;23;20182;-80
2021/01/21 09:54:27;;;;;;;5.57;3.83;;;16.90;43.70;;;;;;6185022;23;20207;-80
2021/01/21 09:56:54;;;;;;;4.97;3.78;;;16.90;43.80;;;;;;6184058;23;20161;-80
2021/01/21 09:59:23;;;;;;;7.18;4.25;;;16.80;43.80;;;;;;6210277;23;20116;-79
2021/01/21 10:01:49;;;;;;;4.80;3.85;;;16.90;43.90;;;;;;6182149;23;20157;-80
2021/01/21 10:04:16;;;;;;;5.40;3.63;;;16.90;43.70;;;;;;6182281;23;20173;-79
2021/01/21 10:06:43;;;;;;;6.50;3.60;;;16.90;43.70;;;;;;6181460;23;20210;-80
2021/01/21 10:09:11;;;;;;;6.22;4.05;;;16.90;43.70;;;;;;6181122;23;20158;-80
2021/01/21 10:11:39;;;;;;;4.90;3.92;;;16.90;43.90;;;;;;6205062;23;20183;-80
2021/01/21 10:14:06;;;;;;;6.05;3.90;;;16.90;43.90;;;;;;6184209;23;20179;-80
2021/01/21 10:16:35;;;;;;;5.22;4.10;;;16.90;43.90;;;;;;6185681;23;20177;-80
2021/01/21 10:19:02;;;;;;;5.30;4.20;;;16.90;43.90;;;;;;6212360;23;20115;-80
2021/01/21 10:21:29;;;;;;;6.03;4.00;;;16.90;44.00;;;;;;6186435;23;20159;-80
2021/01/21 10:24:01;;;;;;;6.95;4.13;;;16.90;44.00;;;;;;6186026;23;20486;-80
2021/01/21 10:26:30;;;;;;;6.03;3.92;;;16.90;44.00;;;;;;6211765;23;20138;-80
2021/01/21 10:29:03;;;;;;;5.43;3.80;;;16.90;44.20;;;;;;6188086;23;20186;-80
2021/01/21 10:31:30;;;;;;;5.32;3.95;;;16.90;44.10;;;;;;6186726;23;20241;-79
2021/01/21 10:34:05;;;;;;;6.80;3.88;;;16.90;44.10;;;;;;6160274;23;20170;-80
2021/01/21 10:37:24;;;;;;;6.22;3.40;;;16.90;44.10;;;;;;6188804;23;20170;-80
2021/01/21 10:40:00;;;;;;;5.53;4.03;;;16.90;44.10;;;;;;6206598;23;20149;-79
2021/01/21 10:42:38;;;;;;;5.32;4.03;;;17.00;44.10;;;;;;6161564;23;20143;-80
2021/01/21 10:45:07;;;;;;;6.40;3.85;;;16.90;44.20;;;;;;6159493;23;20149;-79
2021/01/21 10:47:34;;;;;;;6.57;4.10;;;16.90;44.20;;;;;;6185267;23;20162;-80
2021/01/21 10:50:08;;;;;;;5.85;3.90;;;16.90;44.30;;;;;;6184441;23;20182;-80
2021/01/21 10:52:35;;;;;;;5.40;4.10;;;16.80;44.50;;;;;;6158499;23;20154;-80
2021/01/21 10:55:10;;;;;;;8.82;3.75;;;16.80;44.40;;;;;;6183185;23;20139;-80
2021/01/21 10:57:37;;;;;;;5.55;3.80;;;16.90;44.50;;;;;;6180973;23;20154;-80
2021/01/21 11:00:06;;;;;;;4.85;3.85;;;16.90;44.20;;;;;;6184411;23;20142;-80
2021/01/21 11:02:44;;;;;;;8.55;3.88;;;17.00;44.10;;;;;;6196017;23;20246;-80
2021/01/21 11:05:15;;;;;;;4.20;3.60;;;17.00;44.10;;;;;;6186375;23;20165;-80
2021/01/21 11:07:41;;;;;;;4.72;3.72;;;16.90;44.30;;;;;;6186395;23;20139;-80
2021/01/21 11:10:16;;;;;;;5.13;3.92;;;16.90;44.40;;;;;;6180862;23;20170;-80
2021/01/21 11:12:53;;;;;;;6.38;4.10;;;17.00;44.30;;;;;;6183165;23;20139;-81
2021/01/21 11:15:20;;;;;;;6.75;3.97;;;17.00;44.30;;;;;;6182998;23;20142;-81
2021/01/21 11:17:52;;;;;;;6.13;4.28;;;16.90;44.40;;;;;;6206914;23;20136;-81
2021/01/21 11:20:18;;;;;;;5.00;4.00;;;16.90;44.40;;;;;;6178189;23;20142;-80
2021/01/21 11:22:51;;;;;;;6.13;4.40;;;16.90;44.60;;;;;;6202798;23;20127;-81
2021/01/21 11:25:23;;;;;;;5.18;3.85;;;16.80;44.70;;;;;;6182043;23;20162;-80
2021/01/21 11:27:49;;;;;;;5.28;4.13;;;16.80;44.60;;;;;;6205104;23;20162;-81
2021/01/21 11:30:18;;;;;;;4.90;3.92;;;16.80;44.80;;;;;;6205086;23;20185;-80
2021/01/21 11:32:49;;;;;;;4.25;3.55;;;16.80;44.70;;;;;;6206125;23;20194;-80
2021/01/21 11:35:23;;;;;;;4.90;4.18;;;16.90;45.40;;;;;;6179969;23;20157;-80
2021/01/21 11:37:53;;;;;;;6.47;4.20;;;16.90;44.70;;;;;;6181157;23;20134;-81
2021/01/21 11:40:21;;;;;;;5.25;3.70;;;16.90;44.50;;;;;;6186025;23;20151;-81
2021/01/21 11:42:56;;;;;;;6.35;3.85;;;16.90;44.70;;;;;;6208941;23;20119;-81
2021/01/21 11:45:25;;;;;;;5.95;4.15;;;17.00;44.60;;;;;;6176990;23;20229;-81
2021/01/21 11:47:51;;;;;;;4.75;4.03;;;16.90;44.60;;;;;;6175799;23;20139;-80
2021/01/21 11:50:20;;;;;;;5.55;4.03;;;16.90;44.70;;;;;;6146933;23;20253;-80
2021/01/21 11:52:46;;;;;;;4.72;3.90;;;16.90;44.60;;;;;;6153972;23;20197;-80
2021/01/21 11:55:12;;;;;;;5.10;3.72;;;16.90;44.70;;;;;;6150408;23;20190;-81
2021/01/21 11:57:38;;;;;;;5.15;4.00;;;17.00;44.60;;;;;;6196032;23;20138;-80
2021/01/21 12:00:08;;;;;;;5.00;3.90;;;17.00;44.70;;;;;;6142873;23;20143;-79
2021/01/21 12:02:43;;;;;;;6.10;3.97;;;16.90;44.70;;;;;;6178003;23;20139;-80
2021/01/21 12:05:11;;;;;;;5.25;3.90;;;16.90;44.80;;;;;;6177455;23;20149;-81
2021/01/21 12:07:42;;;;;;;5.20;3.75;;;17.00;44.60;;;;;;6204867;23;20166;-80
2021/01/21 12:10:08;;;;;;;4.10;3.50;;;17.00;44.70;;;;;;6175747;23;20178;-81
2021/01/21 12:12:35;;;;;;;5.28;3.90;;;17.00;44.50;;;;;;6180482;23;20218;-80
2021/01/21 12:15:02;;;;;;;4.68;3.75;;;17.00;44.60;;;;;;6153343;23;20181;-80
2021/01/21 12:17:29;;;;;;;4.00;3.45;;;17.00;44.60;;;;;;6178239;23;20131;-80
2021/01/21 12:19:55;;;;;;;4.97;3.78;;;17.00;44.50;;;;;;6153242;23;20145;-80
2021/01/21 12:22:26;;;;;;;4.95;3.78;;;17.00;44.40;;;;;;6154266;23;20163;-80
2021/01/21 12:24:54;;;;;;;4.55;3.30;;;17.00;44.60;;;;;;6203248;23;20182;-80
2021/01/21 12:27:21;;;;;;;5.50;4.00;;;16.90;44.70;;;;;;6204274;23;20215;-80
2021/01/21 12:29:51;;;;;;;4.40;3.78;;;16.90;44.80;;;;;;6156103;23;20170;-80
2021/01/21 12:32:19;;;;;;;4.43;3.83;;;16.90;44.80;;;;;;6177070;23;20202;-80
2021/01/21 12:34:47;;;;;;;5.00;3.63;;;16.90;44.80;;;;;;6201773;23;20158;-80
2021/01/21 12:37:16;;;;;;;4.97;3.80;;;16.90;44.80;;;;;;6177362;23;20139;-80
2021/01/21 12:39:44;;;;;;;4.10;3.50;;;16.90;44.70;;;;;;6177205;23;20202;-80
2021/01/21 12:42:12;;;;;;;4.43;3.70;;;16.90;44.70;;;;;;6180624;23;20571;-80
2021/01/21 12:44:38;;;;;;;4.47;3.63;;;17.00;44.60;;;;;;6152309;23;20502;-81
2021/01/21 12:47:05;;;;;;;4.18;3.60;;;16.90;44.80;;;;;;6151784;23;20149;-80
2021/01/21 12:49:32;;;;;;;4.57;3.50;;;17.00;44.70;;;;;;6171994;23;20131;-80
2021/01/21 12:51:59;;;;;;;4.57;3.63;;;17.10;44.60;;;;;;6174077;23;20169;-80
2021/01/21 12:54:32;;;;;;;5.45;3.53;;;17.10;44.70;;;;;;6175985;23;20148;-80
2021/01/21 12:57:00;;;;;;;4.03;3.58;;;17.00;44.70;;;;;;6174673;23;20135;-80
2021/01/21 12:59:27;;;;;;;4.65;3.72;;;17.00;44.80;;;;;;6198689;23;20131;-80
2021/01/21 13:01:55;;;;;;;5.03;3.97;;;16.90;45.00;;;;;;6173058;23;20578;-79
2021/01/21 13:04:30;;;;;;;3.83;3.28;;;16.90;45.00;;;;;;6173276;23;20191;-80
2021/01/21 13:06:59;;;;;;;4.10;3.40;;;16.90;44.80;;;;;;6174868;23;20138;-80
2021/01/21 13:09:34;;;;;;;3.78;3.28;;;17.00;44.90;;;;;;6175167;23;20143;-81
2021/01/21 13:12:00;;;;;;;4.97;3.60;;;17.00;44.80;;;;;;6203808;23;20166;-80
2021/01/21 13:14:25;;;;;;;5.03;4.05;;;17.10;44.60;;;;;;6172047;23;20161;-80
2021/01/21 13:16:52;;;;;;;4.60;3.65;;;17.10;44.70;;;;;;6150234;23;20143;-80
2021/01/21 13:19:18;;;;;;;4.55;3.50;;;17.10;44.60;;;;;;6172894;23;20157;-81
2021/01/21 13:21:43;;;;;;;4.45;3.63;;;17.10;44.60;;;;;;6150380;23;20474;-81
2021/01/21 13:24:11;;;;;;;5.20;3.65;;;17.10;44.60;;;;;;6150105;23;20151;-80
2021/01/21 13:26:39;;;;;;;4.13;3.35;;;17.10;44.60;;;;;;6175005;23;20139;-81
2021/01/21 13:29:06;;;;;;;6.35;3.97;;;17.20;44.60;;;;;;6173920;23;20151;-81
2021/01/21 13:31:32;;;;;;;4.65;3.42;;;17.10;44.70;;;;;;6144606;23;20194;-81
2021/01/21 13:33:57;;;;;;;5.85;3.30;;;17.10;44.70;;;;;;6170700;23;20226;-81
2021/01/21 13:36:24;;;;;;;4.72;3.60;;;17.10;44.80;;;;;;6199528;23;20131;-81
2021/01/21 13:38:50;;;;;;;4.43;3.50;;;17.10;44.70;;;;;;6175592;23;20142;-81
2021/01/21 13:41:16;;;;;;;4.75;3.65;;;17.20;44.60;;;;;;6149841;23;20154;-81
2021/01/21 13:43:44;;;;;;;4.45;3.85;;;17.10;44.50;;;;;;6148410;23;20150;-82
2021/01/21 13:46:11;;;;;;;3.95;3.53;;;17.20;44.60;;;;;;6150049;23;20460;-80
2021/01/21 13:48:37;;;;;;;4.07;3.33;;;17.10;44.50;;;;;;6173044;23;20634;-80
2021/01/21 13:51:04;;;;;;;4.35;3.60;;;17.20;44.50;;;;;;6146475;23;20193;-80
2021/01/21 13:53:31;;;;;;;4.57;3.63;;;17.20;44.50;;;;;;6170355;23;20138;-82
2021/01/21 13:56:03;;;;;;;4.60;3.50;;;17.20;44.40;;;;;;6147062;23;20474;-79
2021/01/21 13:58:30;;;;;;;4.00;3.47;;;17.20;44.40;;;;;;6197292;23;20447;-80
2021/01/21 14:00:59;;;;;;;4.05;3.42;;;17.10;44.50;;;;;;6172664;23;20135;-79
2021/01/21 14:03:40;;;;;;;4.82;3.63;;;17.10;44.60;;;;;;6176918;23;20143;-81
2021/01/21 14:06:09;;;;;;;4.00;3.20;;;17.10;44.60;;;;;;6156592;23;20135;-81
2021/01/21 14:08:37;;;;;;;4.28;3.40;;;17.10;45.30;;;;;;6177934;23;20139;-80
2021/01/21 14:11:12;;;;;;;4.80;3.58;;;17.20;44.50;;;;;;6175694;23;20186;-81